createdAt,value
2019-01-23T00:02:24.986Z,65.20
2019-01-23T00:09:48.733Z,65.10
2019-01-23T00:12:17.067Z,65.50
2019-01-23T00:17:13.402Z,66.40
2019-01-23T00:24:37.136Z,66.40
2019-01-23T00:27:05.096Z,66.10
2019-01-23T00:29:33.450Z,65.50
2019-01-23T00:32:02.018Z,65.70
2019-01-23T00:34:30.218Z,66.10
2019-01-23T00:39:26.743Z,66.20
2019-01-23T00:41:54.659Z,66.30
2019-01-23T00:46:51.111Z,66.10
2019-01-23T00:49:19.338Z,66.00
2019-01-23T00:51:47.871Z,66.20
2019-01-23T00:54:15.823Z,66.20
2019-01-23T00:56:44.030Z,66.20
2019-01-23T01:14:01.439Z,66.10
2019-01-23T01:16:29.638Z,66.40
2019-01-23T01:21:26.362Z,66.60
2019-01-23T01:23:54.407Z,66.00
2019-01-23T01:26:21.960Z,66.40
2019-01-23T01:28:55.844Z,66.50
2019-01-23T01:31:20.238Z,66.50
2019-01-23T01:36:15.558Z,66.10
2019-01-23T01:41:12.235Z,66.30
2019-01-23T01:43:39.857Z,66.10
2019-01-23T01:46:08.387Z,65.60
2019-01-23T01:48:35.958Z,65.90
2019-01-23T01:51:04.012Z,66.10
2019-01-23T01:53:32.345Z,67.10
2019-01-23T02:15:43.863Z,65.30
2019-01-23T02:18:11.853Z,65.70
2019-01-23T02:20:40.060Z,66.10
2019-01-23T02:30:32.016Z,66.10
2019-01-23T02:32:59.625Z,66.20
2019-01-23T02:35:27.840Z,66.00
2019-01-23T02:47:51.136Z,65.80
2019-01-23T02:50:19.500Z,66.30
2019-01-23T02:52:47.484Z,65.80
2019-01-23T02:57:43.253Z,66.00
2019-01-23T03:27:18.947Z,65.10
2019-01-23T03:32:14.781Z,65.30
2019-01-23T03:34:43.059Z,65.10
2019-01-23T03:37:10.924Z,65.10
2019-01-23T03:39:38.819Z,65.50
2019-01-23T03:42:08.999Z,65.30
2019-01-23T03:44:38.235Z,65.10
2019-01-23T03:49:33.664Z,65.50
2019-01-23T03:52:01.988Z,65.70
2019-01-23T03:54:30.287Z,65.00
2019-01-23T03:59:32.164Z,65.10
2019-01-23T04:01:56.060Z,65.20
2019-01-23T04:09:18.715Z,65.30
2019-01-23T04:19:10.598Z,65.30
2019-01-23T04:21:38.240Z,64.70
2019-01-23T04:26:34.263Z,65.10
2019-01-23T04:29:01.998Z,65.10
2019-01-23T04:31:30.450Z,65.10
2019-01-23T04:38:53.999Z,65.10
2019-01-23T04:46:17.333Z,64.60
2019-01-23T04:48:45.176Z,64.70
2019-01-23T04:51:32.683Z,64.70
2019-01-23T04:54:00.824Z,64.40
2019-01-23T04:56:28.736Z,65.00
2019-01-23T04:58:56.758Z,64.40
2019-01-23T05:01:24.877Z,63.90
2019-01-23T05:03:52.946Z,63.40
2019-01-23T05:06:20.919Z,63.40
2019-01-23T05:11:17.308Z,63.60
2019-01-23T05:13:45.821Z,63.40
2019-01-23T05:16:13.666Z,63.50
2019-01-23T05:18:41.610Z,63.90
2019-01-23T05:26:05.293Z,63.90
2019-01-23T05:31:01.445Z,63.90
2019-01-23T05:33:29.413Z,63.70
2019-01-23T05:35:57.374Z,63.10
2019-01-23T05:38:25.935Z,63.40
2019-01-23T05:40:53.989Z,63.40
2019-01-23T05:45:50.781Z,63.00
2019-01-23T06:05:33.584Z,62.90
2019-01-23T06:17:53.948Z,62.40
2019-01-23T06:20:22.020Z,62.50
2019-01-23T06:22:50.104Z,63.20
2019-01-23T06:25:17.967Z,63.10
2019-01-23T06:27:45.912Z,62.50
2019-01-23T06:30:16.229Z,62.80
2019-01-23T06:32:44.017Z,63.10
2019-01-23T06:35:12.051Z,62.50
2019-01-23T06:37:40.347Z,61.60
2019-01-23T06:40:09.684Z,61.80
2019-01-23T06:42:37.947Z,63.70
2019-01-23T07:22:08.289Z,61.00
2019-01-23T07:44:19.053Z,61.00
2019-01-23T07:46:47.356Z,61.70
2019-01-23T07:54:11.493Z,62.70
2019-01-23T07:56:39.087Z,62.40
2019-01-23T07:59:07.015Z,62.40
2019-01-23T08:01:34.908Z,62.10
2019-01-23T08:04:03.143Z,62.30
2019-01-23T08:08:59.203Z,61.60
2019-01-23T08:13:55.849Z,61.40
2019-01-23T08:28:42.149Z,61.00
2019-01-23T08:36:07.038Z,61.70
2019-01-23T08:38:35.250Z,62.10
2019-01-23T08:41:03.123Z,61.80
2019-01-23T08:43:31.248Z,60.30
2019-01-23T08:45:58.835Z,60.60
2019-01-23T08:48:26.718Z,60.20
2019-01-23T08:50:55.286Z,60.20
2019-01-23T08:53:23.930Z,60.00
2019-01-23T08:55:53.753Z,59.90
2019-01-23T08:58:22.333Z,60.10
2019-01-23T09:03:17.496Z,60.70
2019-01-23T09:10:41.191Z,60.50
2019-01-23T09:13:09.729Z,60.40
2019-01-23T09:15:37.732Z,59.90
2019-01-23T09:18:07.066Z,60.00
2019-01-23T09:20:35.183Z,60.20
2019-01-23T09:35:52.426Z,59.40
2019-01-23T09:49:38.069Z,59.30
2019-01-23T09:54:58.753Z,59.00
2019-01-23T09:59:54.667Z,58.50
2019-01-23T10:02:22.296Z,59.10
2019-01-23T10:04:50.115Z,59.40
2019-01-23T10:07:19.299Z,58.90
2019-01-23T10:09:47.945Z,59.10
2019-01-23T10:12:16.052Z,57.80
2019-01-23T10:19:40.395Z,57.60
2019-01-23T10:22:08.168Z,57.50
2019-01-23T10:44:24.040Z,57.80
2019-01-23T10:46:52.659Z,57.80
2019-01-23T10:49:20.627Z,57.80
2019-01-23T10:56:44.460Z,57.80
2019-01-23T11:16:30.675Z,58.20
2019-01-23T11:26:22.087Z,58.50
2019-01-23T11:28:52.161Z,58.20
2019-01-23T11:36:33.614Z,59.20
2019-01-23T11:39:01.625Z,59.10
2019-01-23T11:41:29.767Z,58.90
2019-01-23T11:46:27.296Z,58.00
2019-01-23T11:51:24.527Z,58.60
2019-01-23T11:53:53.834Z,58.60
2019-01-23T11:56:22.705Z,58.80
2019-01-23T12:01:27.321Z,59.10
2019-01-23T12:03:51.916Z,59.60
2019-01-23T12:06:20.156Z,59.20
2019-01-23T12:08:48.351Z,59.40
2019-01-23T12:11:17.389Z,58.90
2019-01-23T12:13:45.541Z,59.40
2019-01-23T12:16:15.188Z,59.00
2019-01-23T12:18:47.509Z,59.30
2019-01-23T12:21:17.572Z,59.90
2019-01-23T12:23:45.708Z,59.10
2019-01-23T12:26:14.514Z,59.70
2019-01-23T12:28:44.200Z,59.50
2019-01-23T12:31:13.297Z,60.00
2019-01-23T12:33:41.711Z,59.80
2019-01-23T12:36:09.901Z,59.60
2019-01-23T12:41:06.890Z,59.60
2019-01-23T12:43:36.965Z,59.70
2019-01-23T12:46:11.408Z,59.30
2019-01-23T12:51:07.555Z,59.30
2019-01-23T12:53:37.264Z,59.50
2019-01-23T12:56:06.714Z,59.50
2019-01-23T12:58:36.378Z,60.30
2019-01-23T13:01:06.681Z,59.70
2019-01-23T13:03:34.976Z,59.60
2019-01-23T13:06:03.863Z,59.60
2019-01-23T13:08:33.127Z,59.20
2019-01-23T13:13:48.411Z,59.90
2019-01-23T13:16:16.245Z,59.40
2019-01-23T13:18:44.981Z,59.80
2019-01-23T13:23:40.693Z,59.20
2019-01-23T13:26:09.035Z,59.50
2019-01-23T13:28:38.698Z,59.90
2019-01-23T13:31:06.576Z,59.70
2019-01-23T13:44:37.964Z,59.00
2019-01-23T13:47:07.155Z,59.30
2019-01-23T13:49:35.031Z,59.50
2019-01-23T13:52:22.001Z,59.30
2019-01-23T13:54:55.842Z,59.90
2019-01-23T13:57:24.953Z,59.10
2019-01-23T13:59:55.465Z,59.30
2019-01-23T14:02:29.731Z,59.80
2019-01-23T14:07:33.561Z,59.40
2019-01-23T14:12:39.440Z,59.20
2019-01-23T14:15:12.408Z,59.60
2019-01-23T14:17:41.236Z,60.10
2019-01-23T14:20:11.531Z,60.20
2019-01-23T14:27:37.741Z,59.10
2019-01-23T14:30:09.402Z,59.70
2019-01-23T14:32:43.375Z,59.00
2019-01-23T14:35:14.444Z,59.00
2019-01-23T14:37:53.000Z,58.80
2019-01-23T14:40:20.335Z,59.40
2019-01-23T14:42:48.255Z,59.50
2019-01-23T14:45:16.333Z,59.50
2019-01-23T14:47:44.734Z,59.60
2019-01-23T14:50:14.372Z,60.30
2019-01-23T14:52:43.151Z,59.50
2019-01-23T14:55:11.648Z,59.40
2019-01-23T14:57:40.099Z,59.50
2019-01-23T15:00:15.625Z,59.70
2019-01-23T15:02:43.190Z,59.20
2019-01-23T15:05:12.859Z,58.90
2019-01-23T15:07:41.513Z,58.90
2019-01-23T15:12:41.613Z,59.80
2019-01-23T15:15:11.935Z,59.30
2019-01-23T15:17:40.738Z,59.90
2019-01-23T15:20:31.385Z,59.20
2019-01-23T15:23:01.875Z,59.30
2019-01-23T15:25:31.957Z,59.20
2019-01-23T15:28:00.852Z,58.60
2019-01-23T15:30:30.167Z,59.20
2019-01-23T15:35:29.132Z,59.50
2019-01-23T15:37:57.963Z,59.80
2019-01-23T15:40:28.319Z,59.90
2019-01-23T15:42:57.264Z,59.80
2019-01-23T15:47:53.550Z,59.80
2019-01-23T15:50:23.189Z,60.70
2019-01-23T15:52:51.404Z,59.60
2019-01-23T15:55:21.044Z,59.80
2019-01-23T15:57:49.795Z,59.60
2019-01-23T16:02:58.139Z,59.90
2019-01-23T16:05:27.019Z,59.90
2019-01-23T16:07:55.370Z,60.10
2019-01-23T16:10:24.632Z,60.70
2019-01-23T16:12:53.293Z,59.10
2019-01-23T16:15:23.300Z,59.60
2019-01-23T16:17:52.190Z,60.30
2019-01-23T16:20:19.963Z,59.90
2019-01-23T16:22:47.847Z,60.30
2019-01-23T16:25:16.168Z,60.30
2019-01-23T16:27:45.128Z,60.50
2019-01-23T16:30:22.776Z,59.80
2019-01-23T16:32:51.632Z,59.90
2019-01-23T16:35:21.237Z,60.50
2019-01-23T16:37:49.553Z,60.60
2019-01-23T16:40:18.068Z,61.00
2019-01-23T16:42:46.270Z,60.50
2019-01-23T16:45:15.648Z,60.80
2019-01-23T16:47:45.701Z,60.30
2019-01-23T16:50:16.580Z,60.10
2019-01-23T16:52:44.829Z,59.60
2019-01-23T16:55:12.886Z,59.50
2019-01-23T16:57:41.518Z,59.60
2019-01-23T17:00:14.966Z,59.60
2019-01-23T17:02:50.494Z,60.30
2019-01-23T17:05:22.263Z,60.40
2019-01-23T17:07:50.448Z,60.00
2019-01-23T17:10:22.511Z,60.40
2019-01-23T17:12:50.819Z,60.00
2019-01-23T17:15:19.336Z,60.00
2019-01-23T17:17:47.251Z,60.00
2019-01-23T17:20:21.123Z,59.70
2019-01-23T17:22:48.563Z,60.10
2019-01-23T17:25:16.961Z,60.00
2019-01-23T17:27:45.020Z,60.10
2019-01-23T17:30:14.364Z,60.50
2019-01-23T17:32:45.799Z,59.90
2019-01-23T17:35:14.799Z,60.00
2019-01-23T17:37:42.992Z,59.90
2019-01-23T17:40:12.832Z,60.00
2019-01-23T17:42:40.999Z,61.00
2019-01-23T17:45:16.903Z,60.90
2019-01-23T17:47:45.328Z,60.60
2019-01-23T17:50:15.237Z,60.40
2019-01-23T17:52:44.053Z,60.10
2019-01-23T17:55:15.937Z,60.20
2019-01-23T17:57:44.438Z,60.10
2019-01-23T18:00:17.332Z,60.60
2019-01-23T18:02:52.895Z,59.60
2019-01-23T18:05:21.040Z,60.10
2019-01-23T18:07:50.303Z,60.00
2019-01-23T18:10:18.107Z,59.00
2019-01-23T18:12:46.831Z,59.00
2019-01-23T18:15:16.465Z,58.90
2019-01-23T18:17:45.034Z,58.90
2019-01-23T18:20:18.488Z,59.60
2019-01-23T18:22:47.290Z,59.50
2019-01-23T18:25:16.128Z,59.30
2019-01-23T18:27:44.324Z,59.60
2019-01-23T18:30:20.831Z,59.20
2019-01-23T18:32:49.160Z,59.70
2019-01-23T18:38:30.191Z,60.20
2019-01-23T18:41:35.887Z,60.00
2019-01-23T18:44:31.826Z,60.00
2019-01-23T18:47:36.684Z,60.60
2019-01-23T18:50:53.510Z,60.00
2019-01-23T18:53:22.487Z,60.30
2019-01-23T18:55:51.091Z,60.30
2019-01-23T18:58:18.965Z,60.30
2019-01-23T19:00:48.267Z,60.50
2019-01-23T19:03:16.577Z,60.70
2019-01-23T19:05:44.989Z,60.70
2019-01-23T19:08:13.712Z,60.10
2019-01-23T19:10:43.053Z,60.00
2019-01-23T19:13:12.642Z,60.40
2019-01-23T19:15:40.670Z,60.30
2019-01-23T19:18:09.278Z,60.20
2019-01-23T19:20:37.179Z,60.30
2019-01-23T19:23:05.299Z,60.30
2019-01-23T19:25:33.472Z,60.30
2019-01-23T19:28:01.854Z,60.70
2019-01-23T19:30:30.245Z,60.20
2019-01-23T19:32:59.135Z,60.10
2019-01-23T19:35:27.467Z,59.80
2019-01-23T19:37:56.814Z,60.30
2019-01-23T19:40:25.994Z,60.20
2019-01-23T19:42:55.803Z,60.50
2019-01-23T19:45:24.411Z,60.30
2019-01-23T19:47:52.669Z,60.20
2019-01-23T19:50:21.929Z,60.90
2019-01-23T19:52:50.020Z,60.30
2019-01-23T19:55:18.839Z,60.70
2019-01-23T19:57:47.028Z,60.70
2019-01-23T20:00:22.427Z,60.80
2019-01-23T20:02:50.225Z,60.70
2019-01-23T20:05:24.424Z,60.80
2019-01-23T20:07:52.933Z,60.60
2019-01-23T20:10:22.417Z,60.90
2019-01-23T20:12:50.924Z,61.00
2019-01-23T20:15:20.968Z,60.80
2019-01-23T20:17:50.003Z,60.70
2019-01-23T20:20:18.702Z,60.70
2019-01-23T20:22:46.797Z,60.80
2019-01-23T20:25:18.783Z,60.80
2019-01-23T20:27:47.787Z,61.30
2019-01-23T20:30:18.873Z,61.00
2019-01-23T20:32:47.134Z,61.10
2019-01-23T20:35:15.237Z,61.00
2019-01-23T20:37:50.470Z,60.80
2019-01-23T20:40:20.383Z,61.20
2019-01-23T20:42:49.266Z,60.70
2019-01-23T20:45:17.049Z,60.60
2019-01-23T20:47:46.989Z,61.10
2019-01-23T20:50:18.390Z,61.50
2019-01-23T20:52:47.180Z,61.10
2019-01-23T20:55:15.458Z,61.10
2019-01-23T20:57:43.782Z,61.50
2019-01-23T21:00:17.333Z,61.10
2019-01-23T21:02:46.295Z,62.40
2019-01-23T21:05:14.081Z,60.90
2019-01-23T21:07:44.285Z,61.10
2019-01-23T21:10:13.195Z,61.20
2019-01-23T21:15:14.675Z,61.40
2019-01-23T21:17:43.293Z,61.10
2019-01-23T21:20:12.108Z,61.30
2019-01-23T21:25:08.719Z,61.20
2019-01-23T21:27:36.884Z,61.30
2019-01-23T21:30:07.058Z,61.20
2019-01-23T21:32:35.140Z,61.60
2019-01-23T21:35:08.069Z,61.60
2019-01-23T21:40:08.504Z,61.50
2019-01-23T21:42:38.580Z,61.50
2019-01-23T21:45:08.785Z,61.50
2019-01-23T21:47:37.619Z,61.70
2019-01-23T21:50:07.899Z,61.70
2019-01-23T21:52:35.944Z,61.60
2019-01-23T21:55:05.970Z,61.60
2019-01-23T21:57:34.668Z,61.20
2019-01-23T22:00:04.482Z,61.10
2019-01-23T22:02:41.214Z,61.40
2019-01-23T22:10:07.693Z,61.20
2019-01-23T22:12:40.181Z,61.10
2019-01-23T22:15:20.961Z,60.90
2019-01-23T22:17:56.808Z,61.00
2019-01-23T22:20:51.850Z,60.40
2019-01-23T22:23:21.382Z,61.10
2019-01-23T22:25:49.365Z,61.00
2019-01-23T22:28:17.613Z,60.90
2019-01-23T22:30:45.671Z,60.90
2019-01-23T22:33:13.428Z,61.10
2019-01-23T22:38:09.989Z,60.80
2019-01-23T22:40:39.570Z,61.10
2019-01-23T22:43:07.614Z,61.10
2019-01-23T22:45:37.616Z,61.10
2019-01-23T22:48:06.281Z,61.10
2019-01-23T22:50:34.550Z,61.20
2019-01-23T22:53:03.596Z,61.30
2019-01-23T22:55:32.817Z,61.10
2019-01-23T23:01:07.247Z,61.80
2019-01-23T23:03:35.037Z,62.10
2019-01-23T23:06:02.974Z,62.30
2019-01-23T23:08:31.164Z,62.70
2019-01-23T23:13:27.552Z,62.50
2019-01-23T23:18:25.013Z,63.00
2019-01-23T23:21:12.094Z,62.80
2019-01-23T23:23:39.764Z,62.60
2019-01-23T23:26:08.215Z,62.40
2019-01-23T23:28:36.809Z,62.50
2019-01-23T23:31:04.655Z,62.90
2019-01-23T23:38:29.946Z,61.80
2019-01-23T23:40:58.009Z,62.30
2019-01-23T23:43:25.908Z,61.70
2019-01-23T23:45:54.055Z,61.50
2019-01-23T23:48:22.516Z,61.50
2019-01-23T23:50:51.049Z,61.30
2019-01-23T23:53:19.879Z,61.50
2019-01-23T23:55:48.354Z,61.40
2019-01-23T23:58:16.776Z,61.30
